createdAt,value
2022-12-31T00:02:28.590Z,10.63
2022-12-31T00:04:55.819Z,10.32
2022-12-31T00:07:22.508Z,10.21
2022-12-31T00:09:49.205Z,10.28
2022-12-31T00:12:15.840Z,10.44
2022-12-31T00:14:42.517Z,10.45
2022-12-31T00:17:12.344Z,10.54
2022-12-31T00:19:51.141Z,10.79
2022-12-31T00:22:17.948Z,10.40
2022-12-31T00:24:44.645Z,10.51
2022-12-31T00:27:12.501Z,10.54
2022-12-31T00:29:39.272Z,10.37
2022-12-31T00:32:06.167Z,10.27
2022-12-31T00:34:32.932Z,10.27
2022-12-31T00:37:02.133Z,10.27
2022-12-31T00:39:28.926Z,10.27
2022-12-31T00:41:55.940Z,10.49
2022-12-31T00:44:22.871Z,10.56
2022-12-31T00:46:49.832Z,10.74
2022-12-31T00:49:19.609Z,10.70
2022-12-31T00:51:46.240Z,10.61
2022-12-31T00:54:15.775Z,10.46
2022-12-31T00:56:42.601Z,10.25
2022-12-31T00:59:09.592Z,10.24
2022-12-31T01:01:47.631Z,10.60
2022-12-31T01:04:20.548Z,10.47
2022-12-31T01:06:48.080Z,10.39
2022-12-31T01:09:18.226Z,10.41
2022-12-31T01:11:45.158Z,10.49
2022-12-31T01:14:17.642Z,10.56
2022-12-31T01:16:58.924Z,10.52
2022-12-31T01:19:28.550Z,10.38
2022-12-31T01:21:56.969Z,10.59
2022-12-31T01:24:24.178Z,10.65
2022-12-31T01:26:53.367Z,10.63
2022-12-31T01:29:20.031Z,10.73
2022-12-31T01:31:52.626Z,10.60
2022-12-31T01:34:19.426Z,10.25
2022-12-31T01:36:48.538Z,10.07
2022-12-31T01:39:18.288Z,10.32
2022-12-31T01:41:52.391Z,10.17
2022-12-31T01:44:25.046Z,10.17
2022-12-31T01:46:57.617Z,10.07
2022-12-31T01:49:35.309Z,10.26
2022-12-31T01:52:12.353Z,10.13
2022-12-31T01:54:44.967Z,10.09
2022-12-31T01:57:14.526Z,10.39
2022-12-31T01:59:42.631Z,10.50
2022-12-31T02:02:10.117Z,10.36
2022-12-31T02:04:40.109Z,10.28
2022-12-31T02:07:09.030Z,10.24
2022-12-31T02:09:39.405Z,10.30
2022-12-31T02:12:12.285Z,10.14
2022-12-31T02:14:49.770Z,10.07
2022-12-31T02:17:35.406Z,10.13
2022-12-31T02:20:33.041Z,10.44
2022-12-31T02:23:14.002Z,10.45
2022-12-31T02:26:25.931Z,10.80
2022-12-31T02:29:23.007Z,10.28
2022-12-31T02:32:00.280Z,10.32
2022-12-31T02:34:38.947Z,10.16
2022-12-31T02:37:12.097Z,10.59
2022-12-31T02:39:40.717Z,10.30
2022-12-31T02:42:13.012Z,10.20
2022-12-31T02:44:41.990Z,9.99
2022-12-31T02:47:31.296Z,9.91
2022-12-31T02:50:03.704Z,9.84
2022-12-31T02:53:01.207Z,10.04
2022-12-31T02:55:50.762Z,9.99
2022-12-31T02:58:27.055Z,9.98
2022-12-31T03:00:58.484Z,10.36
2022-12-31T03:03:27.336Z,10.27
2022-12-31T03:06:06.089Z,10.29
2022-12-31T03:08:33.987Z,10.50
2022-12-31T03:11:00.668Z,10.64
2022-12-31T03:13:27.293Z,10.65
2022-12-31T03:15:59.594Z,10.26
2022-12-31T03:18:26.284Z,10.29
2022-12-31T03:20:54.377Z,10.23
2022-12-31T03:23:31.368Z,10.10
2022-12-31T03:25:59.273Z,10.12
2022-12-31T03:28:30.232Z,10.33
2022-12-31T03:31:01.524Z,10.13
2022-12-31T03:33:41.904Z,10.38
2022-12-31T03:36:12.007Z,10.46
2022-12-31T03:38:39.072Z,10.32
2022-12-31T03:41:06.591Z,10.72
2022-12-31T03:43:33.292Z,10.24
2022-12-31T03:46:02.241Z,10.30
2022-12-31T03:48:29.884Z,10.25
2022-12-31T03:50:56.620Z,10.04
2022-12-31T03:53:27.138Z,9.88
2022-12-31T03:55:59.043Z,10.00
2022-12-31T03:58:25.840Z,10.03
2022-12-31T04:00:58.245Z,10.09
2022-12-31T04:03:25.038Z,10.09
2022-12-31T04:05:57.750Z,10.01
2022-12-31T04:08:24.770Z,9.97
2022-12-31T04:10:53.907Z,9.85
2022-12-31T04:13:20.626Z,9.83
2022-12-31T04:15:50.414Z,9.86
2022-12-31T04:18:19.386Z,9.93
2022-12-31T04:20:49.174Z,9.89
2022-12-31T04:23:15.854Z,10.10
2022-12-31T04:25:42.627Z,10.01
2022-12-31T04:28:09.310Z,9.99
2022-12-31T04:30:35.994Z,10.06
2022-12-31T04:33:02.723Z,9.99
2022-12-31T04:35:29.378Z,9.89
2022-12-31T04:37:56.193Z,9.79
2022-12-31T04:40:22.843Z,9.76
2022-12-31T04:42:49.557Z,9.79
2022-12-31T04:45:16.303Z,9.77
2022-12-31T04:47:46.954Z,9.71
2022-12-31T04:50:13.589Z,9.59
2022-12-31T04:52:42.951Z,9.56
2022-12-31T04:55:11.512Z,9.51
2022-12-31T04:57:39.726Z,9.60
2022-12-31T05:00:07.479Z,9.56
2022-12-31T05:02:34.376Z,9.70
2022-12-31T05:05:01.156Z,9.65
2022-12-31T05:07:30.085Z,9.50
2022-12-31T05:09:59.707Z,9.37
2022-12-31T05:12:26.604Z,9.33
2022-12-31T05:14:53.902Z,9.24
2022-12-31T05:17:23.990Z,9.29
2022-12-31T05:19:50.705Z,9.18
2022-12-31T05:22:17.420Z,9.12
2022-12-31T05:24:44.150Z,9.23
2022-12-31T05:27:12.445Z,9.11
2022-12-31T05:29:47.492Z,9.14
2022-12-31T05:32:15.571Z,9.11
2022-12-31T05:34:44.235Z,9.03
2022-12-31T05:37:10.868Z,8.97
2022-12-31T05:39:37.541Z,8.99
2022-12-31T05:42:04.299Z,9.17
2022-12-31T05:44:31.028Z,9.00
2022-12-31T05:47:03.756Z,9.01
2022-12-31T05:49:30.552Z,8.90
2022-12-31T05:51:58.439Z,8.88
2022-12-31T05:54:25.245Z,8.85
2022-12-31T05:56:51.998Z,8.82
2022-12-31T05:59:18.824Z,8.80
2022-12-31T06:01:45.547Z,8.76
2022-12-31T06:04:13.156Z,8.74
2022-12-31T06:06:41.792Z,8.73
2022-12-31T06:09:08.936Z,8.74
2022-12-31T06:11:35.828Z,8.75
2022-12-31T06:14:07.675Z,8.75
2022-12-31T06:16:35.653Z,8.70
2022-12-31T06:19:02.816Z,8.68
2022-12-31T06:21:30.011Z,8.74
2022-12-31T06:23:59.860Z,8.69
2022-12-31T06:26:27.591Z,8.66
2022-12-31T06:28:54.390Z,8.67
2022-12-31T06:31:21.097Z,8.74
2022-12-31T06:33:50.467Z,8.93
2022-12-31T06:36:17.491Z,8.79
2022-12-31T06:38:44.603Z,8.88
2022-12-31T06:41:14.091Z,8.82
2022-12-31T06:43:41.641Z,8.79
2022-12-31T06:46:11.375Z,8.73
2022-12-31T06:48:40.388Z,8.73
2022-12-31T06:51:17.491Z,8.80
2022-12-31T06:53:46.216Z,8.72
2022-12-31T06:56:31.292Z,8.68
2022-12-31T06:59:00.553Z,8.67
2022-12-31T07:01:45.917Z,8.66
2022-12-31T07:04:37.238Z,8.68
2022-12-31T07:07:11.645Z,8.60
2022-12-31T07:10:29.049Z,8.62
2022-12-31T07:13:17.525Z,8.67
2022-12-31T07:16:22.690Z,8.70
2022-12-31T07:19:20.718Z,8.70
2022-12-31T07:21:51.509Z,8.68
2022-12-31T07:24:23.073Z,8.74
2022-12-31T07:27:17.317Z,8.77
2022-12-31T07:30:09.752Z,8.76
2022-12-31T07:32:51.394Z,8.88
2022-12-31T07:35:54.588Z,8.85
2022-12-31T07:38:51.452Z,8.91
2022-12-31T07:41:27.092Z,8.91
2022-12-31T07:44:07.114Z,8.94
2022-12-31T07:46:52.320Z,9.04
2022-12-31T07:49:19.361Z,9.09
2022-12-31T07:51:46.398Z,9.33
2022-12-31T07:54:14.434Z,9.31
2022-12-31T07:56:42.553Z,9.35
2022-12-31T07:59:27.714Z,9.42
2022-12-31T08:02:22.765Z,9.47
2022-12-31T08:04:55.222Z,9.46
2022-12-31T08:07:35.030Z,9.52
2022-12-31T08:10:04.272Z,9.59
2022-12-31T08:12:34.224Z,9.58
2022-12-31T08:15:01.171Z,9.53
2022-12-31T08:17:29.177Z,9.57
2022-12-31T08:19:56.141Z,9.63
2022-12-31T08:22:44.741Z,9.78
2022-12-31T08:25:32.799Z,9.80
2022-12-31T08:28:26.434Z,10.31
2022-12-31T08:31:25.641Z,10.17
2022-12-31T08:34:20.509Z,10.17
2022-12-31T08:37:07.755Z,10.07
2022-12-31T08:39:53.629Z,10.19
2022-12-31T08:42:37.777Z,10.47
2022-12-31T08:45:43.315Z,10.73
2022-12-31T08:48:23.102Z,10.62
2022-12-31T08:50:50.024Z,10.62
2022-12-31T08:53:17.100Z,10.55
2022-12-31T08:55:46.252Z,10.56
2022-12-31T08:58:29.543Z,10.54
2022-12-31T09:00:59.325Z,10.52
2022-12-31T09:03:49.666Z,10.58
2022-12-31T09:06:38.205Z,10.93
2022-12-31T09:09:27.878Z,10.96
2022-12-31T09:12:18.297Z,11.04
2022-12-31T09:14:48.690Z,10.98
2022-12-31T09:17:20.236Z,10.84
2022-12-31T09:19:52.383Z,10.71
2022-12-31T09:22:22.185Z,10.89
2022-12-31T09:24:49.536Z,11.10
2022-12-31T09:27:28.824Z,11.12
2022-12-31T09:30:04.675Z,11.43
2022-12-31T09:33:01.991Z,11.19
2022-12-31T09:35:28.643Z,11.33
2022-12-31T09:38:19.660Z,11.57
2022-12-31T09:41:16.215Z,11.41
2022-12-31T09:43:55.968Z,11.21
2022-12-31T09:46:39.055Z,11.05
2022-12-31T09:49:44.098Z,11.16
2022-12-31T09:52:40.038Z,11.43
2022-12-31T09:55:09.557Z,11.37
2022-12-31T09:58:08.982Z,11.12
2022-12-31T10:00:46.147Z,11.11
2022-12-31T10:03:34.858Z,11.09
2022-12-31T10:06:25.803Z,11.28
2022-12-31T10:09:16.981Z,11.36
2022-12-31T10:11:46.275Z,11.39
2022-12-31T10:14:24.728Z,11.36
2022-12-31T10:16:54.171Z,11.53
2022-12-31T10:19:32.424Z,11.27
2022-12-31T10:22:24.114Z,11.19
2022-12-31T10:25:08.113Z,11.41
2022-12-31T10:27:55.773Z,11.64
2022-12-31T10:30:24.172Z,11.45
2022-12-31T10:33:06.790Z,11.49
2022-12-31T10:35:43.484Z,11.87
2022-12-31T10:38:47.604Z,11.66
2022-12-31T10:41:46.744Z,11.72
2022-12-31T10:44:28.625Z,11.82
2022-12-31T10:47:16.922Z,11.84
2022-12-31T10:49:58.522Z,11.77
2022-12-31T10:52:46.710Z,11.69
2022-12-31T10:55:26.485Z,11.61
2022-12-31T10:58:17.811Z,11.59
2022-12-31T11:01:13.443Z,11.82
2022-12-31T11:03:51.513Z,11.65
2022-12-31T11:06:36.275Z,11.67
2022-12-31T11:09:31.297Z,11.69
2022-12-31T11:12:26.339Z,11.70
2022-12-31T11:15:21.806Z,11.78
2022-12-31T11:18:06.745Z,11.71
2022-12-31T11:20:57.870Z,11.68
2022-12-31T11:23:51.903Z,12.10
2022-12-31T11:26:56.233Z,11.80
2022-12-31T11:30:04.488Z,12.02
2022-12-31T11:32:36.472Z,11.94
2022-12-31T11:35:09.861Z,12.11
2022-12-31T11:38:09.231Z,11.93
2022-12-31T11:41:01.443Z,11.87
2022-12-31T11:43:52.471Z,11.98
2022-12-31T11:46:28.265Z,12.19
2022-12-31T11:49:14.765Z,12.11
2022-12-31T11:52:21.547Z,11.96
2022-12-31T11:55:12.706Z,11.93
2022-12-31T11:57:44.170Z,12.01
2022-12-31T12:00:25.820Z,12.14
2022-12-31T12:03:04.112Z,12.18
2022-12-31T12:05:32.135Z,12.08
2022-12-31T12:07:58.809Z,12.01
2022-12-31T12:10:37.176Z,12.09
2022-12-31T12:13:33.406Z,12.00
2022-12-31T12:16:03.378Z,12.05
2022-12-31T12:18:54.476Z,12.21
2022-12-31T12:21:24.138Z,12.07
2022-12-31T12:23:58.209Z,12.36
2022-12-31T12:26:45.085Z,12.27
2022-12-31T12:29:33.559Z,12.19
2022-12-31T12:32:23.425Z,12.28
2022-12-31T12:34:53.911Z,12.34
2022-12-31T12:37:34.882Z,12.21
2022-12-31T12:40:20.262Z,12.29
2022-12-31T12:42:48.677Z,12.39
2022-12-31T12:45:19.715Z,12.35
2022-12-31T12:47:48.876Z,12.69
2022-12-31T12:50:21.996Z,12.55
2022-12-31T12:53:31.698Z,12.33
2022-12-31T12:56:28.561Z,12.29
2022-12-31T12:59:21.097Z,12.29
2022-12-31T13:02:33.522Z,12.18
2022-12-31T13:05:33.981Z,12.18
2022-12-31T13:08:20.849Z,12.07
2022-12-31T13:11:09.980Z,12.03
2022-12-31T13:14:01.585Z,12.00
2022-12-31T13:16:47.251Z,12.20
2022-12-31T13:19:45.096Z,12.22
2022-12-31T13:22:25.000Z,12.22
2022-12-31T13:25:07.543Z,12.29
2022-12-31T13:27:45.703Z,12.34
2022-12-31T13:30:20.111Z,12.26
2022-12-31T13:32:52.726Z,12.25
2022-12-31T13:35:30.669Z,12.13
2022-12-31T13:38:23.840Z,12.11
2022-12-31T13:41:39.355Z,12.22
2022-12-31T13:44:08.601Z,12.20
2022-12-31T13:47:00.934Z,12.21
2022-12-31T13:49:30.271Z,12.21
2022-12-31T13:52:14.796Z,12.28
2022-12-31T13:54:52.170Z,12.32
2022-12-31T13:57:42.719Z,12.17
2022-12-31T14:00:21.367Z,12.12
2022-12-31T14:02:52.778Z,12.13
2022-12-31T14:05:37.476Z,12.10
2022-12-31T14:08:06.956Z,12.08
2022-12-31T14:10:51.620Z,12.03
2022-12-31T14:13:38.765Z,12.14
2022-12-31T14:16:54.054Z,12.04
2022-12-31T14:19:51.141Z,12.06
2022-12-31T14:22:34.271Z,12.07
2022-12-31T14:25:04.094Z,12.05
2022-12-31T14:27:34.930Z,12.04
2022-12-31T14:30:06.197Z,12.03
2022-12-31T14:32:45.395Z,12.00
2022-12-31T14:35:36.895Z,11.86
2022-12-31T14:38:20.255Z,11.80
2022-12-31T14:41:12.027Z,11.78
2022-12-31T14:44:08.726Z,11.85
2022-12-31T14:47:15.675Z,11.75
2022-12-31T14:50:00.301Z,11.91
2022-12-31T14:52:47.663Z,11.90
2022-12-31T14:55:16.890Z,11.75
2022-12-31T14:58:25.295Z,11.66
2022-12-31T15:00:35.852Z,11.61
2022-12-31T15:03:23.322Z,11.63
2022-12-31T15:05:54.336Z,11.68
2022-12-31T15:08:31.433Z,11.84
2022-12-31T15:10:58.018Z,11.94
2022-12-31T15:13:27.363Z,11.81
2022-12-31T15:16:15.872Z,11.75
2022-12-31T15:18:42.486Z,11.74
2022-12-31T15:21:13.597Z,11.63
2022-12-31T15:23:42.154Z,11.68
2022-12-31T15:26:23.196Z,11.66
2022-12-31T15:29:05.867Z,11.67
2022-12-31T15:31:35.942Z,11.66
2022-12-31T15:34:07.935Z,11.64
2022-12-31T15:36:39.067Z,11.69
2022-12-31T15:39:11.796Z,11.65
2022-12-31T15:42:35.693Z,11.66
2022-12-31T15:44:44.364Z,11.61
2022-12-31T15:47:45.093Z,11.60
2022-12-31T15:50:19.089Z,11.63
2022-12-31T15:52:54.079Z,11.66
2022-12-31T15:55:27.160Z,11.64
2022-12-31T15:58:18.614Z,11.69
2022-12-31T16:01:15.028Z,11.73
2022-12-31T16:03:52.175Z,11.76
2022-12-31T16:06:18.878Z,11.77
2022-12-31T16:08:48.388Z,11.76
2022-12-31T16:11:15.843Z,11.71
2022-12-31T16:13:46.024Z,11.69
2022-12-31T16:16:28.690Z,11.63
2022-12-31T16:18:56.554Z,11.66
2022-12-31T16:21:36.243Z,11.65
2022-12-31T16:24:26.142Z,11.73
2022-12-31T16:27:00.111Z,11.72
2022-12-31T16:29:30.133Z,11.74
2022-12-31T16:31:59.695Z,11.65
2022-12-31T16:34:27.665Z,11.59
2022-12-31T16:37:00.240Z,11.54
2022-12-31T16:40:01.056Z,11.53
2022-12-31T16:42:29.138Z,11.45
2022-12-31T16:44:59.111Z,11.45
2022-12-31T16:47:37.442Z,11.47
2022-12-31T16:50:24.861Z,11.51
2022-12-31T16:52:59.424Z,11.62
2022-12-31T16:55:29.536Z,11.69
2022-12-31T16:58:22.468Z,11.55
2022-12-31T17:00:50.961Z,11.49
2022-12-31T17:03:21.317Z,11.44
2022-12-31T17:06:30.377Z,11.45
2022-12-31T17:08:59.723Z,11.43
2022-12-31T17:11:45.158Z,11.44
2022-12-31T17:14:13.478Z,11.38
2022-12-31T17:16:57.760Z,11.35
2022-12-31T17:19:50.404Z,11.32
2022-12-31T17:22:36.407Z,11.44
2022-12-31T17:25:15.679Z,11.36
2022-12-31T17:27:55.908Z,11.35
2022-12-31T17:30:44.845Z,11.36
2022-12-31T17:33:14.238Z,11.36
2022-12-31T17:35:45.360Z,11.33
2022-12-31T17:38:18.010Z,11.38
2022-12-31T17:40:51.289Z,11.31
2022-12-31T17:43:21.194Z,11.31
2022-12-31T17:45:51.034Z,11.29
2022-12-31T17:48:21.013Z,11.23
2022-12-31T17:50:56.344Z,11.20
2022-12-31T17:53:23.258Z,11.22
2022-12-31T17:56:03.504Z,11.15
2022-12-31T17:58:56.583Z,11.10
2022-12-31T18:01:23.976Z,11.11
2022-12-31T18:03:50.765Z,11.15
2022-12-31T18:06:18.399Z,11.11
2022-12-31T18:08:48.741Z,11.09
2022-12-31T18:11:19.571Z,11.01
2022-12-31T18:13:49.434Z,10.97
2022-12-31T18:16:16.858Z,10.91
2022-12-31T18:18:43.632Z,10.83
2022-12-31T18:21:21.861Z,10.78
2022-12-31T18:26:22.050Z,10.69
2022-12-31T18:28:52.461Z,10.66
2022-12-31T18:31:32.208Z,10.67
2022-12-31T18:33:59.349Z,10.63
2022-12-31T18:36:27.831Z,10.55
2022-12-31T18:38:54.573Z,10.52
2022-12-31T18:41:34.448Z,10.46
2022-12-31T18:44:01.091Z,10.40
2022-12-31T18:46:28.364Z,10.34
2022-12-31T18:48:55.063Z,10.32
2022-12-31T18:51:31.377Z,10.29
2022-12-31T18:54:00.006Z,10.31
2022-12-31T18:56:26.949Z,10.26
2022-12-31T18:58:58.499Z,10.30
2022-12-31T19:01:38.688Z,10.24
2022-12-31T19:04:13.797Z,10.44
2022-12-31T19:06:40.815Z,10.28
2022-12-31T19:09:30.877Z,10.21
2022-12-31T19:11:57.904Z,10.20
2022-12-31T19:14:25.741Z,10.19
2022-12-31T19:16:56.832Z,10.17
2022-12-31T19:19:23.577Z,10.18
2022-12-31T19:21:50.315Z,10.14
2022-12-31T19:24:31.072Z,9.98
2022-12-31T19:26:57.764Z,9.98
2022-12-31T19:32:10.686Z,9.99
2022-12-31T19:34:39.458Z,10.00
2022-12-31T19:37:06.189Z,9.94
2022-12-31T19:39:32.866Z,9.88
2022-12-31T19:41:59.921Z,9.87
2022-12-31T19:44:26.729Z,9.82
2022-12-31T19:46:53.551Z,9.80
2022-12-31T19:49:20.280Z,9.79
2022-12-31T19:51:46.932Z,9.77
2022-12-31T19:54:13.823Z,9.70
2022-12-31T19:56:43.624Z,9.73
2022-12-31T19:59:10.842Z,9.74
2022-12-31T20:01:37.985Z,9.71
2022-12-31T20:04:05.040Z,9.74
2022-12-31T20:06:31.817Z,9.76
2022-12-31T20:08:58.405Z,9.71
2022-12-31T20:11:25.406Z,9.82
2022-12-31T20:13:55.899Z,9.77
2022-12-31T20:16:25.064Z,9.77
2022-12-31T20:18:51.767Z,9.93
2022-12-31T20:21:21.460Z,9.91
2022-12-31T20:23:52.351Z,10.00
2022-12-31T20:26:22.777Z,9.94
2022-12-31T20:28:53.701Z,9.94
2022-12-31T20:31:25.067Z,9.94
2022-12-31T20:33:55.391Z,9.93
2022-12-31T20:36:22.795Z,9.91
2022-12-31T20:38:49.752Z,9.86
2022-12-31T20:41:20.528Z,9.87
2022-12-31T20:43:50.027Z,9.95
2022-12-31T20:46:22.202Z,9.81
2022-12-31T20:48:52.859Z,9.79
2022-12-31T20:51:20.625Z,9.78
2022-12-31T20:53:51.933Z,9.79
2022-12-31T20:56:18.901Z,9.72
2022-12-31T20:58:53.399Z,9.67
2022-12-31T21:01:24.038Z,9.65
2022-12-31T21:04:05.061Z,9.60
2022-12-31T21:06:33.550Z,9.52
2022-12-31T21:09:02.331Z,9.51
2022-12-31T21:11:29.064Z,9.48
2022-12-31T21:13:59.556Z,9.45
2022-12-31T21:16:27.257Z,9.45
2022-12-31T21:18:54.071Z,9.47
2022-12-31T21:21:21.567Z,9.43
2022-12-31T21:23:48.254Z,9.42
2022-12-31T21:26:14.978Z,9.47
2022-12-31T21:28:45.356Z,9.40
2022-12-31T21:31:14.393Z,9.34
2022-12-31T21:33:45.314Z,9.33
2022-12-31T21:36:17.501Z,9.32
2022-12-31T21:38:46.157Z,9.22
2022-12-31T21:41:18.126Z,9.21
2022-12-31T21:43:44.768Z,9.22
2022-12-31T21:46:11.522Z,9.24
2022-12-31T21:48:38.407Z,9.27
2022-12-31T21:51:10.974Z,9.24
2022-12-31T21:53:37.802Z,9.24
2022-12-31T21:56:08.913Z,9.20
2022-12-31T21:58:47.078Z,9.19
2022-12-31T22:01:22.569Z,9.15
2022-12-31T22:03:49.663Z,9.09
2022-12-31T22:06:24.828Z,9.08
2022-12-31T22:08:56.371Z,9.13
2022-12-31T22:11:26.516Z,9.10
2022-12-31T22:13:54.348Z,9.07
2022-12-31T22:16:22.496Z,9.10
2022-12-31T22:18:50.260Z,9.11
2022-12-31T22:21:20.741Z,9.10
2022-12-31T22:23:53.058Z,9.01
2022-12-31T22:26:26.177Z,9.00
2022-12-31T22:28:55.375Z,8.95
2022-12-31T22:31:23.535Z,8.92
2022-12-31T22:33:53.112Z,8.89
2022-12-31T22:36:23.912Z,8.90
2022-12-31T22:38:54.552Z,8.91
2022-12-31T22:41:22.303Z,8.89
2022-12-31T22:43:51.444Z,8.87
2022-12-31T22:46:20.041Z,8.85
2022-12-31T22:48:47.411Z,8.83
2022-12-31T22:51:15.370Z,8.82
2022-12-31T22:53:42.870Z,8.79
2022-12-31T22:56:11.168Z,8.79
2022-12-31T22:58:44.734Z,8.75
2022-12-31T23:01:26.041Z,8.73
2022-12-31T23:03:57.687Z,8.66
2022-12-31T23:06:27.545Z,8.62
2022-12-31T23:08:54.858Z,8.66
2022-12-31T23:11:21.686Z,8.61
2022-12-31T23:13:51.462Z,8.57
2022-12-31T23:16:22.482Z,8.63
2022-12-31T23:18:52.140Z,8.61
2022-12-31T23:21:18.821Z,8.65
2022-12-31T23:23:45.475Z,8.70
2022-12-31T23:26:12.188Z,8.76
2022-12-31T23:28:38.850Z,8.76
2022-12-31T23:31:06.784Z,8.75
2022-12-31T23:33:33.590Z,8.73
2022-12-31T23:36:07.320Z,8.73
2022-12-31T23:38:45.332Z,8.68
2022-12-31T23:41:14.139Z,8.66
2022-12-31T23:43:44.781Z,8.69
2022-12-31T23:46:12.909Z,8.68
2022-12-31T23:48:41.727Z,8.66
2022-12-31T23:51:09.175Z,8.65
2022-12-31T23:53:39.211Z,8.72
2022-12-31T23:56:20.919Z,8.65
2022-12-31T23:58:54.089Z,8.55
